Glen Park, New York
Current Conditions -  °F | °C
As of 2:56 PM on Wednesday 28 Jan 2015 (Local Time) from KART Reporting Station
Clear Clear  
Wind Chill: -12°   Ceiling: Unl
Heat Index: -7°   Visibility: 10mi
Dew Point: -20°   Wind: 6mph
Humidity: 36%   Direction: 240°WSW
Pressure: 30.26"   Gusts: NA
Location:  43.9663°N, 75.9119°W
Report Text: KART 281956Z AUTO 24005KT 10SM CLR M07/M20 A3026 RMK AO2 SLPNO T10721200
Loading
Personal Weather Stations






























Interactive Weather Map New forecast layout! Learn more

10-Day Weather Forecast

Advertisements
Track Severe Weather on mobile